Terminal Aerodrome Forecast
Issued by NWS

Home | Current Version | Previous Version | Text Only | Print | Product List | Glossary On
Versions: 1 2 3 4 5 6 7 8 9 10 11 12 13
000
FTUS46 KSEW 161700
TAFPAE
TAF
KPAE 161720Z 1618/1718 20008KT P6SM VCSH SCT010 BKN100
      TEMPO 1618/1620 BKN010
     FM162000 24007KT P6SM SCT040 BKN120
     FM171000 18004KT P6SM SCT022 BKN100
      TEMPO 1712/1715 BKN022
     FM171500 19004KT P6SM SCT025 BKN080=

USA.gov is the U.S. government's official web portal to all federal, state and local government web resources and services.